createdAt,value
2019-03-24T00:00:08.609Z,0.00
2019-03-24T00:01:08.558Z,0.00
2019-03-24T00:02:08.589Z,0.00
2019-03-24T00:03:08.523Z,0.00
2019-03-24T00:04:08.514Z,0.00
2019-03-24T00:05:08.452Z,0.00
2019-03-24T00:06:08.548Z,0.00
2019-03-24T00:07:08.435Z,0.00
2019-03-24T00:08:08.420Z,0.00
2019-03-24T00:09:08.407Z,0.00
2019-03-24T00:10:08.410Z,0.00
2019-03-24T00:11:08.469Z,0.00
2019-03-24T00:12:08.374Z,0.00
2019-03-24T00:13:08.410Z,0.00
2019-03-24T00:14:08.376Z,0.00
2019-03-24T00:15:08.443Z,0.00
2019-03-24T00:16:08.489Z,0.00
2019-03-24T00:17:08.366Z,0.00
2019-03-24T00:18:08.368Z,0.00
2019-03-24T00:19:08.444Z,0.00
2019-03-24T00:20:10.282Z,0.00
2019-03-24T00:21:08.366Z,0.00
2019-03-24T00:22:08.574Z,0.00
2019-03-24T00:23:08.248Z,0.00
2019-03-24T00:24:08.300Z,0.00
2019-03-24T00:25:08.209Z,0.00
2019-03-24T00:26:08.288Z,0.00
2019-03-24T00:27:08.306Z,0.00
2019-03-24T00:28:08.208Z,0.00
2019-03-24T00:29:08.243Z,0.00
2019-03-24T00:30:08.284Z,0.00
2019-03-24T00:31:08.149Z,0.00
2019-03-24T00:32:08.227Z,0.00
2019-03-24T00:33:08.179Z,0.00
2019-03-24T00:34:08.248Z,0.00
2019-03-24T00:35:08.161Z,0.00
2019-03-24T00:36:08.176Z,0.00
2019-03-24T00:37:08.149Z,0.00
2019-03-24T00:38:08.117Z,0.00
2019-03-24T00:39:08.238Z,0.00
2019-03-24T00:40:08.151Z,0.00
2019-03-24T00:41:08.099Z,0.00
2019-03-24T00:42:08.101Z,0.00
2019-03-24T00:43:08.086Z,0.00
2019-03-24T00:44:08.120Z,0.00
2019-03-24T00:45:07.969Z,0.00
2019-03-24T00:46:08.176Z,0.00
2019-03-24T00:47:08.055Z,0.00
2019-03-24T00:48:08.131Z,0.00
2019-03-24T00:49:07.992Z,0.00
2019-03-24T00:50:08.020Z,0.00
2019-03-24T00:51:07.927Z,0.00
2019-03-24T00:52:07.976Z,0.00
2019-03-24T00:53:07.869Z,0.00
2019-03-24T00:54:07.899Z,0.00
2019-03-24T00:55:07.875Z,0.00
2019-03-24T00:56:07.872Z,0.00
2019-03-24T00:57:07.901Z,0.00
2019-03-24T00:58:07.807Z,0.00
2019-03-24T00:59:07.819Z,0.00
2019-03-24T01:00:07.893Z,0.00
2019-03-24T01:01:07.889Z,0.00
2019-03-24T01:02:07.865Z,0.00
2019-03-24T01:03:07.895Z,0.00
2019-03-24T01:04:07.809Z,0.00
2019-03-24T01:05:07.868Z,0.00
2019-03-24T01:06:07.732Z,0.00
2019-03-24T01:07:07.714Z,0.00
2019-03-24T01:08:07.794Z,0.00
2019-03-24T01:09:07.748Z,0.00
2019-03-24T01:10:07.728Z,0.00
2019-03-24T01:11:07.777Z,0.00
2019-03-24T01:12:07.685Z,0.00
2019-03-24T01:13:07.732Z,0.00
2019-03-24T01:14:07.685Z,0.00
2019-03-24T01:15:07.740Z,0.00
2019-03-24T01:16:07.622Z,0.00
2019-03-24T01:17:07.631Z,0.00
2019-03-24T01:18:07.655Z,0.00
2019-03-24T01:19:07.638Z,0.00
2019-03-24T01:20:07.582Z,0.00
2019-03-24T01:21:07.564Z,0.00
2019-03-24T01:22:07.588Z,0.00
2019-03-24T01:23:08.560Z,0.00
2019-03-24T01:24:07.601Z,0.00
2019-03-24T01:25:07.536Z,0.00
2019-03-24T01:26:07.571Z,0.00
2019-03-24T01:27:07.603Z,0.00
2019-03-24T01:28:07.595Z,0.00
2019-03-24T01:29:07.551Z,0.00
2019-03-24T01:30:07.537Z,0.00
2019-03-24T01:31:07.615Z,0.00
2019-03-24T01:32:07.562Z,0.00
2019-03-24T01:33:07.523Z,0.00
2019-03-24T01:34:07.538Z,0.00
2019-03-24T01:35:07.471Z,0.00
2019-03-24T01:36:07.499Z,0.00
2019-03-24T01:37:07.438Z,0.00
2019-03-24T01:38:07.442Z,0.00
2019-03-24T01:39:07.445Z,0.00
2019-03-24T01:40:07.383Z,0.00
2019-03-24T01:41:08.131Z,0.00
2019-03-24T01:42:07.419Z,0.00
2019-03-24T01:43:07.390Z,0.00
2019-03-24T01:44:07.422Z,0.00
2019-03-24T01:45:07.352Z,0.00
2019-03-24T01:46:07.337Z,0.00
2019-03-24T01:47:07.335Z,0.00
2019-03-24T01:48:07.397Z,0.00
2019-03-24T01:49:07.376Z,0.00
2019-03-24T01:50:07.315Z,0.00
2019-03-24T01:51:07.275Z,0.00
2019-03-24T01:52:07.255Z,0.00
2019-03-24T01:53:07.275Z,0.00
2019-03-24T01:54:07.303Z,0.00
2019-03-24T01:55:07.251Z,0.00
2019-03-24T01:56:07.234Z,0.00
2019-03-24T01:57:07.275Z,0.00
2019-03-24T01:58:07.569Z,0.00
2019-03-24T01:59:07.251Z,0.00
2019-03-24T02:00:07.213Z,0.00
2019-03-24T02:01:07.135Z,0.00
2019-03-24T02:02:07.188Z,0.00
2019-03-24T02:03:07.244Z,0.00
2019-03-24T02:04:07.212Z,0.00
2019-03-24T02:05:07.137Z,0.00
2019-03-24T02:06:07.099Z,0.00
2019-03-24T02:07:07.112Z,0.00
2019-03-24T02:08:07.143Z,0.00
2019-03-24T02:09:07.065Z,0.00
2019-03-24T02:10:07.150Z,0.00
2019-03-24T02:11:07.094Z,0.00
2019-03-24T02:12:07.023Z,0.00
2019-03-24T02:13:07.031Z,0.00
2019-03-24T02:14:07.086Z,0.00
2019-03-24T02:15:07.133Z,0.00
2019-03-24T02:16:09.613Z,0.00
2019-03-24T02:17:07.027Z,0.00
2019-03-24T02:18:07.035Z,0.00
2019-03-24T02:19:06.962Z,0.00
2019-03-24T02:20:07.158Z,0.00
2019-03-24T02:21:06.913Z,0.00
2019-03-24T02:22:06.990Z,0.00
2019-03-24T02:23:06.988Z,0.00
2019-03-24T02:24:06.914Z,0.00
2019-03-24T02:25:06.874Z,0.00
2019-03-24T02:26:06.998Z,0.00
2019-03-24T02:27:06.952Z,0.00
2019-03-24T02:28:06.859Z,0.00
2019-03-24T02:29:06.920Z,0.00
2019-03-24T02:30:06.855Z,0.00
2019-03-24T02:31:06.940Z,0.00
2019-03-24T02:32:06.833Z,0.00
2019-03-24T02:33:06.830Z,0.00
2019-03-24T02:34:06.841Z,0.00
2019-03-24T02:35:06.775Z,0.00
2019-03-24T02:36:06.821Z,0.00
2019-03-24T02:37:06.845Z,0.00
2019-03-24T02:38:06.798Z,0.00
2019-03-24T02:39:06.865Z,0.00
2019-03-24T02:40:06.758Z,0.00
2019-03-24T02:41:06.788Z,0.00
2019-03-24T02:42:07.671Z,0.00
2019-03-24T02:43:06.725Z,0.00
2019-03-24T02:44:06.682Z,0.00
2019-03-24T02:45:06.998Z,0.00
2019-03-24T02:46:06.699Z,0.00
2019-03-24T02:47:06.693Z,0.00
2019-03-24T02:48:06.789Z,0.00
2019-03-24T02:49:06.625Z,0.00
2019-03-24T02:50:06.702Z,0.00
2019-03-24T02:51:06.601Z,0.00
2019-03-24T02:52:06.712Z,0.00
2019-03-24T02:53:06.682Z,0.00
2019-03-24T02:54:06.635Z,0.00
2019-03-24T02:55:06.597Z,0.00
2019-03-24T02:56:06.629Z,0.00
2019-03-24T02:57:06.662Z,0.00
2019-03-24T02:58:06.669Z,0.00
2019-03-24T02:59:06.687Z,0.00
2019-03-24T03:00:06.566Z,0.00
2019-03-24T03:01:06.529Z,0.00
2019-03-24T03:02:06.538Z,0.00
2019-03-24T03:03:06.544Z,0.00
2019-03-24T03:04:06.562Z,0.00
2019-03-24T03:05:06.513Z,0.00
2019-03-24T03:06:06.542Z,0.00
2019-03-24T03:07:06.491Z,0.00
2019-03-24T03:08:06.526Z,0.00
2019-03-24T03:09:06.466Z,0.00
2019-03-24T03:10:06.420Z,0.00
2019-03-24T03:11:06.497Z,0.00
2019-03-24T03:12:06.454Z,0.00
2019-03-24T03:13:06.450Z,0.00
2019-03-24T03:14:06.424Z,0.00
2019-03-24T03:15:06.476Z,0.00
2019-03-24T03:16:06.431Z,0.00
2019-03-24T03:17:06.374Z,0.00
2019-03-24T03:18:07.722Z,0.00
2019-03-24T03:19:06.495Z,0.00
2019-03-24T03:20:06.474Z,0.00
2019-03-24T03:21:06.774Z,0.00
2019-03-24T03:22:06.395Z,0.00
2019-03-24T03:23:06.387Z,0.00
2019-03-24T03:24:06.320Z,0.00
2019-03-24T03:25:06.519Z,0.00
2019-03-24T03:26:06.283Z,0.00
2019-03-24T03:27:06.323Z,0.00
2019-03-24T03:28:06.451Z,0.00
2019-03-24T03:29:06.257Z,0.00
2019-03-24T03:30:06.247Z,0.00
2019-03-24T03:31:06.250Z,0.00
2019-03-24T03:32:06.281Z,0.00
2019-03-24T03:33:06.165Z,0.00
2019-03-24T03:34:06.201Z,0.00
2019-03-24T03:35:06.192Z,0.00
2019-03-24T03:36:06.102Z,0.00
2019-03-24T03:37:06.201Z,0.00
2019-03-24T03:38:06.202Z,0.00
2019-03-24T03:39:06.141Z,0.00
2019-03-24T03:40:06.225Z,0.00
2019-03-24T03:41:06.242Z,0.00
2019-03-24T03:42:06.244Z,0.00
2019-03-24T03:43:06.117Z,0.00
2019-03-24T03:44:06.130Z,0.00
2019-03-24T03:45:06.144Z,0.00
2019-03-24T03:46:06.084Z,0.00
2019-03-24T03:47:06.067Z,0.00
2019-03-24T03:48:06.030Z,0.00
2019-03-24T03:49:06.034Z,0.00
2019-03-24T03:50:06.998Z,0.00
2019-03-24T03:51:06.088Z,0.00
2019-03-24T03:52:05.997Z,0.00
2019-03-24T03:53:05.957Z,0.00
2019-03-24T03:54:06.001Z,0.00
2019-03-24T03:55:05.974Z,0.00
2019-03-24T03:56:05.935Z,0.00
2019-03-24T03:57:05.908Z,0.00
2019-03-24T03:58:05.938Z,0.00
2019-03-24T03:59:05.867Z,0.00
2019-03-24T04:00:06.006Z,0.00
2019-03-24T04:01:05.912Z,0.00
2019-03-24T04:02:05.924Z,0.00
2019-03-24T04:03:05.926Z,0.00
2019-03-24T04:04:05.933Z,0.00
2019-03-24T04:05:05.954Z,0.00
2019-03-24T04:06:05.874Z,0.00
2019-03-24T04:07:05.807Z,0.00
2019-03-24T04:08:05.808Z,0.00
2019-03-24T04:09:05.809Z,0.00
2019-03-24T04:10:05.942Z,0.00
2019-03-24T04:11:05.840Z,0.00
2019-03-24T04:12:05.788Z,0.00
2019-03-24T04:13:05.803Z,0.00
2019-03-24T04:14:05.755Z,0.00
2019-03-24T04:15:05.757Z,0.00
2019-03-24T04:16:05.782Z,0.00
2019-03-24T04:17:07.859Z,0.00
2019-03-24T04:18:05.857Z,0.00
2019-03-24T04:19:05.696Z,0.00
2019-03-24T04:20:05.677Z,0.00
2019-03-24T04:21:05.743Z,0.00
2019-03-24T04:22:05.623Z,0.00
2019-03-24T04:23:05.640Z,0.00
2019-03-24T04:24:05.582Z,0.00
2019-03-24T04:25:05.699Z,0.00
2019-03-24T04:26:05.583Z,0.00
2019-03-24T04:27:05.594Z,0.00
2019-03-24T04:28:05.547Z,0.00
2019-03-24T04:29:05.555Z,0.00
2019-03-24T04:30:05.545Z,0.00
2019-03-24T04:31:05.552Z,0.00
2019-03-24T04:32:05.544Z,0.00
2019-03-24T04:33:05.519Z,0.00
2019-03-24T04:34:05.507Z,0.00
2019-03-24T04:35:05.490Z,0.00
2019-03-24T04:36:05.650Z,0.00
2019-03-24T04:37:05.638Z,0.00
2019-03-24T04:38:05.544Z,0.00
2019-03-24T04:39:05.657Z,0.00
2019-03-24T04:40:05.445Z,0.00
2019-03-24T04:41:05.478Z,0.00
2019-03-24T04:42:05.427Z,0.00
2019-03-24T04:43:05.577Z,0.00
2019-03-24T04:44:05.699Z,0.00
2019-03-24T04:45:06.100Z,0.00
2019-03-24T04:46:05.398Z,0.00
2019-03-24T04:47:05.355Z,0.00
2019-03-24T04:48:05.375Z,0.00
2019-03-24T04:49:05.364Z,0.00
2019-03-24T04:50:05.320Z,0.00
2019-03-24T04:51:05.291Z,0.00
2019-03-24T04:52:05.328Z,0.00
2019-03-24T04:53:05.305Z,4.00
2019-03-24T04:54:05.268Z,4.00
2019-03-24T04:55:05.247Z,0.00
2019-03-24T04:56:05.244Z,4.00
2019-03-24T04:57:05.240Z,4.00
2019-03-24T04:58:05.966Z,4.00
2019-03-24T04:59:05.267Z,4.00
2019-03-24T05:00:05.201Z,4.00
2019-03-24T05:01:05.192Z,8.00
2019-03-24T05:02:05.232Z,8.00
2019-03-24T05:03:05.951Z,8.00
2019-03-24T05:04:05.198Z,12.00
2019-03-24T05:05:05.137Z,16.00
2019-03-24T05:06:05.125Z,16.00
2019-03-24T05:07:05.136Z,20.00
2019-03-24T05:08:05.115Z,28.00
2019-03-24T05:09:05.141Z,32.00
2019-03-24T05:10:05.085Z,36.00
2019-03-24T05:11:05.121Z,44.00
2019-03-24T05:12:05.133Z,52.00
2019-03-24T05:13:05.060Z,60.00
2019-03-24T05:14:05.953Z,68.00
2019-03-24T05:15:05.031Z,84.00
2019-03-24T05:16:05.087Z,96.00
2019-03-24T05:17:05.026Z,112.00
2019-03-24T05:18:05.006Z,128.00
2019-03-24T05:19:05.033Z,144.00
2019-03-24T05:20:05.057Z,168.00
2019-03-24T05:21:04.987Z,192.00
2019-03-24T05:22:05.008Z,216.00
2019-03-24T05:23:04.959Z,248.00
2019-03-24T05:24:05.038Z,276.00
2019-03-24T05:25:04.975Z,308.00
2019-03-24T05:26:04.935Z,344.00
2019-03-24T05:27:04.956Z,380.00
2019-03-24T05:28:04.907Z,420.00
2019-03-24T05:29:04.946Z,464.00
2019-03-24T05:30:04.913Z,512.00
2019-03-24T05:31:04.873Z,556.00
2019-03-24T05:32:04.853Z,604.00
2019-03-24T05:33:04.851Z,652.00
2019-03-24T05:34:04.879Z,704.00
2019-03-24T05:35:05.832Z,752.00
2019-03-24T05:36:04.809Z,800.00
2019-03-24T05:37:04.808Z,852.00
2019-03-24T05:38:04.850Z,908.00
2019-03-24T05:39:04.773Z,968.00
2019-03-24T05:40:04.831Z,1032.00
2019-03-24T05:41:04.767Z,1092.00
2019-03-24T05:42:04.795Z,1152.00
2019-03-24T05:43:04.744Z,1216.00
2019-03-24T05:44:04.719Z,1280.00
2019-03-24T05:45:04.788Z,1332.00
2019-03-24T05:46:04.714Z,1388.00
2019-03-24T05:47:04.706Z,1448.00
2019-03-24T05:48:04.768Z,1512.00
2019-03-24T05:49:04.701Z,1568.00
2019-03-24T05:50:04.725Z,1636.00
2019-03-24T05:51:04.649Z,1700.00
2019-03-24T05:52:04.641Z,1784.00
2019-03-24T05:53:04.624Z,1848.00
2019-03-24T05:54:04.625Z,1916.00
2019-03-24T05:55:04.627Z,1972.00
2019-03-24T05:56:04.678Z,1928.00
2019-03-24T05:57:04.593Z,2008.00
2019-03-24T05:58:04.588Z,2052.00
2019-03-24T05:59:04.585Z,2152.00
2019-03-24T06:00:04.546Z,2208.00
2019-03-24T06:01:04.627Z,2260.00
2019-03-24T06:02:04.549Z,2332.00
2019-03-24T06:03:04.533Z,2452.00
2019-03-24T06:04:04.513Z,2572.00
2019-03-24T06:05:04.502Z,2584.00
2019-03-24T06:06:04.476Z,2708.00
2019-03-24T06:07:04.520Z,2968.00
2019-03-24T06:08:04.503Z,3056.00
2019-03-24T06:09:04.481Z,3160.00
2019-03-24T06:10:05.013Z,3116.00
2019-03-24T06:11:04.431Z,3144.00
2019-03-24T06:12:04.471Z,2972.00
2019-03-24T06:13:04.415Z,2884.00
2019-03-24T06:14:04.448Z,3132.00
2019-03-24T06:15:04.392Z,3108.00
2019-03-24T06:16:04.481Z,2856.00
2019-03-24T06:17:04.434Z,3032.00
2019-03-24T06:18:04.359Z,3104.00
2019-03-24T06:19:04.345Z,3024.00
2019-03-24T06:20:04.400Z,3336.00
2019-03-24T06:21:04.366Z,3512.00
2019-03-24T06:22:04.333Z,3852.00
2019-03-24T06:23:12.075Z,3664.00
2019-03-24T06:24:04.321Z,4476.00
2019-03-24T06:25:04.303Z,4228.00
2019-03-24T06:26:04.299Z,4424.00
2019-03-24T06:27:04.264Z,4064.00
2019-03-24T06:28:04.309Z,4064.00
2019-03-24T06:29:04.240Z,4184.00
2019-03-24T06:30:04.228Z,4344.00
2019-03-24T06:31:04.285Z,4356.00
2019-03-24T06:32:04.207Z,4792.00
2019-03-24T06:33:04.244Z,4464.00
2019-03-24T06:34:04.180Z,4864.00
2019-03-24T06:35:04.182Z,5608.00
2019-03-24T06:36:04.162Z,6268.00
2019-03-24T06:37:04.151Z,6676.00
2019-03-24T06:38:04.184Z,6432.00
2019-03-24T06:39:04.195Z,6516.00
2019-03-24T06:40:04.121Z,6648.00
2019-03-24T06:41:04.114Z,6992.00
2019-03-24T06:42:04.092Z,6636.00
2019-03-24T06:43:04.136Z,5652.00
2019-03-24T06:44:04.075Z,6088.00
2019-03-24T06:45:04.076Z,6900.00
2019-03-24T06:46:04.069Z,7100.00
2019-03-24T06:47:04.044Z,7156.00
2019-03-24T06:48:04.075Z,7084.00
2019-03-24T06:49:04.020Z,7172.00
2019-03-24T06:50:04.034Z,7020.00
2019-03-24T06:51:04.001Z,7100.00
2019-03-24T06:52:04.010Z,6988.00
2019-03-24T06:53:04.024Z,6288.00
2019-03-24T06:54:03.971Z,6072.00
2019-03-24T06:55:03.962Z,6172.00
2019-03-24T06:56:03.946Z,6820.00
2019-03-24T06:57:04.006Z,8148.00
2019-03-24T06:58:03.967Z,8612.00
2019-03-24T06:59:03.928Z,8064.00
2019-03-24T07:00:03.900Z,7672.00
2019-03-24T07:01:03.933Z,6784.00
2019-03-24T07:02:03.965Z,6544.00
2019-03-24T07:03:03.913Z,7748.00
2019-03-24T07:04:03.854Z,9396.00
2019-03-24T07:05:03.860Z,9068.00
2019-03-24T07:06:03.851Z,8332.00
2019-03-24T07:07:03.895Z,10140.00
2019-03-24T07:08:03.914Z,9324.00
2019-03-24T07:09:03.810Z,8844.00
2019-03-24T07:10:03.792Z,9768.00
2019-03-24T07:11:09.512Z,11488.00
2019-03-24T07:12:04.771Z,11832.00
2019-03-24T07:13:03.810Z,11432.00
2019-03-24T07:14:03.751Z,11004.00
2019-03-24T07:15:03.783Z,10796.00
2019-03-24T07:16:03.733Z,10456.00
2019-03-24T07:17:03.725Z,9464.00
2019-03-24T07:18:08.348Z,8780.00
2019-03-24T07:19:04.686Z,9440.00
2019-03-24T07:20:03.773Z,8928.00
2019-03-24T07:21:03.694Z,8196.00
2019-03-24T07:22:03.678Z,9064.00
2019-03-24T07:23:03.702Z,10684.00
2019-03-24T07:24:03.651Z,13108.00
2019-03-24T07:25:03.636Z,12652.00
2019-03-24T07:26:03.613Z,11496.00
2019-03-24T07:27:03.612Z,10500.00
2019-03-24T07:28:04.515Z,12548.00
2019-03-24T07:29:03.614Z,9984.00
2019-03-24T07:30:03.580Z,8324.00
2019-03-24T07:31:03.558Z,6788.00
2019-03-24T07:32:03.613Z,6980.00
2019-03-24T07:33:03.578Z,8500.00
2019-03-24T07:34:03.551Z,8168.00
2019-03-24T07:35:03.521Z,8784.00
2019-03-24T07:36:03.551Z,10596.00
2019-03-24T07:37:03.496Z,11288.00
2019-03-24T07:38:03.482Z,12064.00
2019-03-24T07:39:03.518Z,11636.00
2019-03-24T07:40:03.463Z,10048.00
2019-03-24T07:41:03.454Z,9236.00
2019-03-24T07:42:05.520Z,9764.00
2019-03-24T07:43:03.433Z,10788.00
2019-03-24T07:44:03.460Z,10892.00
2019-03-24T07:45:03.412Z,10812.00
2019-03-24T07:46:03.399Z,11188.00
2019-03-24T07:47:03.392Z,11320.00
2019-03-24T07:48:03.449Z,11548.00
2019-03-24T07:49:03.405Z,10128.00
2019-03-24T07:50:03.369Z,10808.00
2019-03-24T07:51:03.338Z,11540.00
2019-03-24T07:52:03.326Z,11332.00
2019-03-24T07:53:03.323Z,11672.00
2019-03-24T07:54:03.411Z,10864.00
2019-03-24T07:55:03.295Z,11160.00
2019-03-24T07:56:03.296Z,11164.00
2019-03-24T07:57:03.284Z,11436.00
2019-03-24T07:58:03.272Z,11984.00
2019-03-24T07:59:03.304Z,16140.00
2019-03-24T08:00:03.266Z,18880.00
2019-03-24T08:01:03.235Z,22208.00
2019-03-24T08:02:03.239Z,27104.00
2019-03-24T08:03:03.217Z,21792.00
2019-03-24T08:04:03.252Z,23040.00
2019-03-24T08:05:03.207Z,16256.00
2019-03-24T08:06:03.203Z,16368.00
2019-03-24T08:07:03.172Z,16484.00
2019-03-24T08:08:03.195Z,17072.00
2019-03-24T08:09:03.205Z,18944.00
2019-03-24T08:10:03.140Z,21408.00
2019-03-24T08:11:03.132Z,24224.00
2019-03-24T08:12:03.124Z,26464.00
2019-03-24T08:13:03.112Z,22144.00
2019-03-24T08:14:03.130Z,17536.00
2019-03-24T08:15:03.085Z,19232.00
2019-03-24T08:16:03.115Z,20864.00
2019-03-24T08:17:03.059Z,19392.00
2019-03-24T08:18:03.052Z,31328.00
2019-03-24T08:19:03.097Z,44896.00
2019-03-24T08:20:03.028Z,28928.00
2019-03-24T08:21:03.075Z,21920.00
2019-03-24T08:22:03.044Z,19968.00
2019-03-24T08:23:03.064Z,18144.00
2019-03-24T08:24:03.052Z,24832.00
2019-03-24T08:25:02.975Z,32672.00
2019-03-24T08:26:03.027Z,37856.00
2019-03-24T08:27:02.973Z,17920.00
2019-03-24T08:28:02.938Z,19744.00
2019-03-24T08:29:03.017Z,22016.00
2019-03-24T08:30:02.912Z,21376.00
2019-03-24T08:31:02.921Z,20704.00
2019-03-24T08:32:02.907Z,22272.00
2019-03-24T08:33:02.893Z,17664.00
2019-03-24T08:34:02.923Z,19456.00
2019-03-24T08:35:02.900Z,22496.00
2019-03-24T08:36:02.852Z,34400.00
2019-03-24T08:37:02.917Z,33568.00
2019-03-24T08:38:02.880Z,48416.00
2019-03-24T08:39:02.872Z,36384.00
2019-03-24T08:40:02.811Z,44384.00
2019-03-24T08:41:02.851Z,22528.00
2019-03-24T08:42:02.802Z,21536.00
2019-03-24T08:43:02.771Z,22368.00
2019-03-24T08:44:02.814Z,19968.00
2019-03-24T08:45:02.747Z,18624.00
2019-03-24T08:46:02.771Z,20992.00
2019-03-24T08:47:02.730Z,20096.00
2019-03-24T08:48:02.723Z,22336.00
2019-03-24T08:49:02.748Z,21920.00
2019-03-24T08:50:02.725Z,21152.00
2019-03-24T08:51:02.701Z,25536.00
2019-03-24T08:52:02.678Z,30048.00
2019-03-24T08:53:02.666Z,38432.00
2019-03-24T08:54:02.701Z,39616.00
2019-03-24T08:55:02.649Z,37664.00
2019-03-24T08:56:02.638Z,31616.00
2019-03-24T08:57:02.628Z,21920.00
2019-03-24T08:58:02.655Z,19680.00
2019-03-24T08:59:04.313Z,26848.00
2019-03-24T09:00:03.867Z,23232.00
2019-03-24T09:01:02.572Z,21472.00
2019-03-24T09:02:02.617Z,17984.00
2019-03-24T09:03:02.577Z,20448.00
2019-03-24T09:04:02.584Z,20576.00
2019-03-24T09:05:02.535Z,21056.00
2019-03-24T09:06:02.531Z,22656.00
2019-03-24T09:07:02.509Z,22240.00
2019-03-24T09:08:02.532Z,28096.00
2019-03-24T09:09:02.549Z,44960.00
2019-03-24T09:10:02.555Z,40896.00
2019-03-24T09:11:02.521Z,31680.00
2019-03-24T09:12:02.457Z,27072.00
2019-03-24T09:13:02.508Z,38784.00
2019-03-24T09:14:02.503Z,32960.00
2019-03-24T09:15:02.415Z,25984.00
2019-03-24T09:16:02.421Z,56960.00
2019-03-24T09:17:02.453Z,63552.00
2019-03-24T09:18:02.394Z,54048.00
2019-03-24T09:19:02.428Z,56384.00
2019-03-24T09:20:02.400Z,59200.00
2019-03-24T09:21:02.359Z,61984.00
2019-03-24T09:22:02.389Z,74016.00
2019-03-24T09:23:02.386Z,71392.00
2019-03-24T09:24:02.433Z,72736.00
2019-03-24T09:25:02.336Z,60608.00
2019-03-24T09:26:02.307Z,66944.00
2019-03-24T09:27:02.311Z,65248.00
2019-03-24T09:28:02.342Z,64224.00
2019-03-24T09:29:02.310Z,69440.00
2019-03-24T09:30:02.255Z,62016.00
2019-03-24T09:31:02.245Z,64576.00
2019-03-24T09:32:02.234Z,69856.00
2019-03-24T09:33:02.277Z,71648.00
2019-03-24T09:34:02.254Z,75232.00
2019-03-24T09:35:02.227Z,79712.00
2019-03-24T09:36:02.203Z,81088.00
2019-03-24T09:37:02.195Z,90304.00
2019-03-24T09:38:02.170Z,45376.00
2019-03-24T09:39:02.166Z,43008.00
2019-03-24T09:40:02.284Z,33120.00
2019-03-24T09:41:02.148Z,41664.00
2019-03-24T09:42:02.162Z,71776.00
2019-03-24T09:43:02.136Z,73408.00
2019-03-24T09:44:02.169Z,69152.00
2019-03-24T09:45:02.153Z,70816.00
2019-03-24T09:46:02.104Z,62432.00
2019-03-24T09:47:02.078Z,62208.00
2019-03-24T09:48:02.095Z,70368.00
2019-03-24T09:49:03.267Z,42208.00
2019-03-24T09:50:02.095Z,68032.00
2019-03-24T09:51:02.029Z,66720.00
2019-03-24T09:52:02.054Z,70400.00
2019-03-24T09:53:02.016Z,65952.00
2019-03-24T09:54:01.987Z,66368.00
2019-03-24T09:55:03.340Z,71872.00
2019-03-24T09:56:01.966Z,74432.00
2019-03-24T09:57:02.033Z,72640.00
2019-03-24T09:58:01.951Z,72160.00
2019-03-24T09:59:01.939Z,74816.00
2019-03-24T10:00:01.969Z,73888.00
2019-03-24T10:01:01.918Z,75648.00
2019-03-24T10:02:01.915Z,72864.00
2019-03-24T10:03:01.939Z,77568.00
2019-03-24T10:04:01.900Z,59744.00
2019-03-24T10:05:01.928Z,80256.00
2019-03-24T10:06:01.872Z,84672.00
2019-03-24T10:07:01.872Z,78112.00
2019-03-24T10:08:01.876Z,77728.00
2019-03-24T10:09:01.834Z,84768.00
2019-03-24T10:10:01.870Z,82048.00
2019-03-24T10:11:01.812Z,81344.00
2019-03-24T10:12:01.804Z,88864.00
2019-03-24T10:13:01.798Z,91968.00
2019-03-24T10:14:01.780Z,75488.00
2019-03-24T10:15:01.855Z,61376.00
2019-03-24T10:16:01.757Z,55328.00
2019-03-24T10:17:01.745Z,52448.00
2019-03-24T10:18:01.749Z,51008.00
2019-03-24T10:19:01.726Z,52064.00
2019-03-24T10:20:02.532Z,48352.00
2019-03-24T10:21:01.811Z,51584.00
2019-03-24T10:22:01.693Z,53120.00
2019-03-24T10:23:01.684Z,60704.00
2019-03-24T10:24:01.678Z,81824.00
2019-03-24T10:25:01.698Z,59840.00
2019-03-24T10:26:01.664Z,58080.00
2019-03-24T10:27:01.709Z,59232.00
2019-03-24T10:28:01.632Z,56256.00
2019-03-24T10:29:01.643Z,54272.00
2019-03-24T10:30:01.652Z,49952.00
2019-03-24T10:31:01.595Z,46912.00
2019-03-24T10:32:01.621Z,47008.00
2019-03-24T10:33:01.572Z,45696.00
2019-03-24T10:34:01.587Z,42624.00
2019-03-24T10:35:01.592Z,40384.00
2019-03-24T10:36:01.541Z,38944.00
2019-03-24T10:37:01.535Z,39392.00
2019-03-24T10:38:01.535Z,36384.00
2019-03-24T10:39:01.504Z,34720.00
2019-03-24T10:40:01.607Z,32928.00
2019-03-24T10:41:01.506Z,31936.00
2019-03-24T10:42:01.474Z,30560.00
2019-03-24T10:43:01.479Z,28448.00
2019-03-24T10:44:01.486Z,26592.00
2019-03-24T10:45:01.491Z,25216.00
2019-03-24T10:46:01.435Z,24352.00
2019-03-24T10:47:01.471Z,23808.00
2019-03-24T10:48:01.422Z,23488.00
2019-03-24T10:49:01.451Z,22976.00
2019-03-24T10:50:01.447Z,22688.00
2019-03-24T10:51:01.378Z,22560.00
2019-03-24T10:52:01.370Z,22400.00
2019-03-24T10:53:01.364Z,22368.00
2019-03-24T10:54:01.347Z,22560.00
2019-03-24T10:55:01.388Z,22784.00
2019-03-24T10:56:01.350Z,23136.00
2019-03-24T10:57:01.314Z,23648.00
2019-03-24T10:58:01.305Z,24288.00
2019-03-24T10:59:01.289Z,25184.00
2019-03-24T11:00:01.317Z,26720.00
2019-03-24T11:01:01.273Z,28672.00
2019-03-24T11:02:01.286Z,30496.00
2019-03-24T11:03:01.250Z,32192.00
2019-03-24T11:04:01.238Z,33952.00
2019-03-24T11:05:01.270Z,35776.00
2019-03-24T11:06:01.213Z,39264.00
2019-03-24T11:07:01.205Z,37984.00
2019-03-24T11:08:01.196Z,36800.00
2019-03-24T11:09:01.183Z,37664.00
2019-03-24T11:10:01.277Z,40672.00
2019-03-24T11:11:01.167Z,44608.00
2019-03-24T11:12:01.145Z,48672.00
2019-03-24T11:13:01.144Z,51552.00
2019-03-24T11:14:01.144Z,55968.00
2019-03-24T11:15:01.112Z,57280.00
2019-03-24T11:16:01.158Z,55776.00
2019-03-24T11:17:01.141Z,55552.00
2019-03-24T11:18:01.157Z,58528.00
2019-03-24T11:19:01.067Z,48000.00
2019-03-24T11:20:01.079Z,51264.00
2019-03-24T11:21:01.122Z,57920.00
2019-03-24T11:22:01.042Z,56928.00
2019-03-24T11:23:01.059Z,59744.00
2019-03-24T11:24:01.045Z,66464.00
2019-03-24T11:25:01.005Z,64160.00
2019-03-24T11:26:01.071Z,61024.00
2019-03-24T11:27:01.026Z,54240.00
2019-03-24T11:28:00.964Z,50144.00
2019-03-24T11:29:00.957Z,51936.00
2019-03-24T11:30:00.965Z,67392.00
2019-03-24T11:31:00.941Z,64096.00
2019-03-24T11:32:00.967Z,56512.00
2019-03-24T11:33:00.929Z,55392.00
2019-03-24T11:34:00.910Z,50976.00
2019-03-24T11:35:00.911Z,57696.00
2019-03-24T11:36:00.911Z,68256.00
2019-03-24T11:37:00.960Z,54016.00
2019-03-24T11:38:00.868Z,45152.00
2019-03-24T11:39:00.872Z,49824.00
2019-03-24T11:40:00.848Z,51872.00
2019-03-24T11:41:00.824Z,43776.00
2019-03-24T11:42:00.903Z,49248.00
2019-03-24T11:43:00.837Z,44288.00
2019-03-24T11:44:00.821Z,49472.00
2019-03-24T11:45:00.863Z,43936.00
2019-03-24T11:46:00.777Z,49056.00
2019-03-24T11:47:00.816Z,43680.00
2019-03-24T11:48:00.761Z,44704.00
2019-03-24T11:49:00.762Z,45024.00
2019-03-24T11:50:00.777Z,46688.00
2019-03-24T11:51:00.720Z,47744.00
2019-03-24T11:52:00.714Z,43360.00
2019-03-24T11:53:00.809Z,40736.00
2019-03-24T11:54:00.718Z,42368.00
2019-03-24T11:55:00.717Z,43328.00
2019-03-24T11:56:00.662Z,39584.00
2019-03-24T11:57:00.672Z,41088.00
2019-03-24T11:58:05.637Z,36576.00
2019-03-24T11:59:01.665Z,33280.00
2019-03-24T12:00:00.778Z,33504.00
2019-03-24T12:01:00.612Z,36352.00
2019-03-24T12:02:00.645Z,38144.00
2019-03-24T12:03:00.648Z,35328.00
2019-03-24T12:04:00.588Z,39616.00
2019-03-24T12:05:00.593Z,43104.00
2019-03-24T12:06:00.637Z,39680.00
2019-03-24T12:07:00.554Z,46944.00
2019-03-24T12:08:03.617Z,53888.00
2019-03-24T12:09:00.518Z,41280.00
2019-03-24T12:10:00.511Z,46624.00
2019-03-24T12:11:00.520Z,58496.00
2019-03-24T12:12:00.591Z,57280.00
2019-03-24T12:13:00.489Z,63072.00
2019-03-24T12:14:00.507Z,56768.00
2019-03-24T12:15:00.462Z,57152.00
2019-03-24T12:16:00.446Z,56000.00
2019-03-24T12:17:00.446Z,56992.00
2019-03-24T12:18:00.483Z,61024.00
2019-03-24T12:19:01.058Z,67680.00
2019-03-24T12:20:00.425Z,60224.00
2019-03-24T12:21:00.402Z,53952.00
2019-03-24T12:22:00.377Z,66592.00
2019-03-24T12:23:00.442Z,49952.00
2019-03-24T12:24:00.416Z,52320.00
2019-03-24T12:25:00.490Z,79232.00